sensor_id;sensor_type;location;lat;lon;timestamp;pressure;altitude;pressure_sealevel;temperature;humidity
7337;BME280;54510;42.016;23.098;2023-08-01T00:01:29;-21805.44;;;24.56;53.54
7337;BME280;54510;42.016;23.098;2023-08-01T00:03:54;-21806.53;;;24.60;53.71
7337;BME280;54510;42.016;23.098;2023-08-01T00:06:20;-21812.94;;;24.84;53.08
7337;BME280;54510;42.016;23.098;2023-08-01T00:08:47;-21810.09;;;24.73;52.77
7337;BME280;54510;42.016;23.098;2023-08-01T00:11:13;-21804.38;;;24.52;53.68
7337;BME280;54510;42.016;23.098;2023-08-01T00:13:39;-21797.00;;;24.25;54.06
7337;BME280;54510;42.016;23.098;2023-08-01T00:16:06;-21801.09;;;24.40;54.07
7337;BME280;54510;42.016;23.098;2023-08-01T00:18:31;-21807.22;;;24.63;53.27
7337;BME280;54510;42.016;23.098;2023-08-01T00:20:57;-21802.19;;;24.44;53.66
7337;BME280;54510;42.016;23.098;2023-08-01T00:23:24;-21800.81;;;24.39;54.19
7337;BME280;54510;42.016;23.098;2023-08-01T00:25:49;-21794.94;;;24.17;54.54
7337;BME280;54510;42.016;23.098;2023-08-01T00:28:17;-21790.03;;;23.99;54.91
7337;BME280;54510;42.016;23.098;2023-08-01T00:30:43;-21792.38;;;24.08;54.94
7337;BME280;54510;42.016;23.098;2023-08-01T00:33:08;-21791.81;;;24.06;54.89
7337;BME280;54510;42.016;23.098;2023-08-01T00:35:34;-21782.97;;;23.73;56.15
7337;BME280;54510;42.016;23.098;2023-08-01T00:37:59;-21781.47;;;23.67;56.27
7337;BME280;54510;42.016;23.098;2023-08-01T00:40:32;-21781.19;;;23.66;56.19
7337;BME280;54510;42.016;23.098;2023-08-01T00:42:58;-21783.91;;;23.76;56.14
7337;BME280;54510;42.016;23.098;2023-08-01T00:45:27;-21783.22;;;23.74;56.55
7337;BME280;54510;42.016;23.098;2023-08-01T00:47:54;-21784.72;;;23.79;56.15
7337;BME280;54510;42.016;23.098;2023-08-01T00:50:20;-21782.41;;;23.71;56.07
7337;BME280;54510;42.016;23.098;2023-08-01T00:52:48;-21784.19;;;23.77;55.93
7337;BME280;54510;42.016;23.098;2023-08-01T00:55:15;-21780.50;;;23.63;56.59
7337;BME280;54510;42.016;23.098;2023-08-01T00:57:42;-21786.38;;;23.85;56.06
7337;BME280;54510;42.016;23.098;2023-08-01T01:00:08;-21780.63;;;23.64;55.97
7337;BME280;54510;42.016;23.098;2023-08-01T01:02:34;-21790.47;;;24.00;55.71
7337;BME280;54510;42.016;23.098;2023-08-01T01:05:00;-21797.13;;;24.25;55.34
7337;BME280;54510;42.016;23.098;2023-08-01T01:07:25;-21789.91;;;23.98;55.54
7337;BME280;54510;42.016;23.098;2023-08-01T01:09:51;-21796.19;;;24.22;54.97
7337;BME280;54510;42.016;23.098;2023-08-01T01:12:16;-21794.81;;;24.17;54.58
7337;BME280;54510;42.016;23.098;2023-08-01T01:14:42;-21797.13;;;24.25;54.62
7337;BME280;54510;42.016;23.098;2023-08-01T01:17:07;-21800.69;;;24.38;54.78
7337;BME280;54510;42.016;23.098;2023-08-01T01:19:33;-21800.69;;;24.38;53.94
7337;BME280;54510;42.016;23.098;2023-08-01T01:21:58;-21800.69;;;24.38;54.18
7337;BME280;54510;42.016;23.098;2023-08-01T01:24:25;-21802.72;;;24.46;53.73
7337;BME280;54510;42.016;23.098;2023-08-01T01:26:53;-21801.63;;;24.42;53.41
7337;BME280;54510;42.016;23.098;2023-08-01T01:29:20;-21797.28;;;24.26;53.79
7337;BME280;54510;42.016;23.098;2023-08-01T01:31:48;-21799.59;;;24.34;53.89
7337;BME280;54510;42.016;23.098;2023-08-01T01:34:13;-21798.91;;;24.32;54.43
7337;BME280;54510;42.016;23.098;2023-08-01T01:36:39;-21798.38;;;24.30;53.91
7337;BME280;54510;42.016;23.098;2023-08-01T01:39:04;-21795.38;;;24.19;54.57
7337;BME280;54510;42.016;23.098;2023-08-01T01:41:30;-21784.03;;;23.77;55.68
7337;BME280;54510;42.016;23.098;2023-08-01T01:43:55;-21785.13;;;23.81;55.59
7337;BME280;54510;42.016;23.098;2023-08-01T01:46:21;-21781.59;;;23.68;56.35
7337;BME280;54510;42.016;23.098;2023-08-01T01:48:46;-21784.59;;;23.79;56.15
7337;BME280;54510;42.016;23.098;2023-08-01T01:51:12;-21790.59;;;24.01;55.95
7337;BME280;54510;42.016;23.098;2023-08-01T01:53:37;-21781.47;;;23.67;55.88
7337;BME280;54510;42.016;23.098;2023-08-01T01:56:02;-21780.78;;;23.65;56.28
7337;BME280;54510;42.016;23.098;2023-08-01T01:58:28;-21773.25;;;23.37;57.16
7337;BME280;54510;42.016;23.098;2023-08-01T02:00:53;-21772.56;;;23.34;57.42
7337;BME280;54510;42.016;23.098;2023-08-01T02:03:18;-21771.22;;;23.29;57.83
7337;BME280;54510;42.016;23.098;2023-08-01T02:05:44;-21765.75;;;23.09;57.99
7337;BME280;54510;42.016;23.098;2023-08-01T02:08:10;-21773.94;;;23.39;57.08
7337;BME280;54510;42.016;23.098;2023-08-01T02:10:35;-21777.09;;;23.51;56.65
7337;BME280;54510;42.016;23.098;2023-08-01T02:13:00;-21773.94;;;23.39;57.39
7337;BME280;54510;42.016;23.098;2023-08-01T02:15:26;-21772.31;;;23.33;57.73
7337;BME280;54510;42.016;23.098;2023-08-01T02:17:51;-21770.25;;;23.26;58.05
7337;BME280;54510;42.016;23.098;2023-08-01T02:20:17;-21769.56;;;23.23;57.80
7337;BME280;54510;42.016;23.098;2023-08-01T02:22:42;-21769.44;;;23.22;57.99
7337;BME280;54510;42.016;23.098;2023-08-01T02:25:07;-21767.81;;;23.16;57.92
7337;BME280;54510;42.016;23.098;2023-08-01T02:27:33;-21764.25;;;23.03;58.13
7337;BME280;54510;42.016;23.098;2023-08-01T02:29:58;-21766.03;;;23.10;58.38
7337;BME280;54510;42.016;23.098;2023-08-01T02:32:24;-21764.94;;;23.06;58.40
7337;BME280;54510;42.016;23.098;2023-08-01T02:34:49;-21764.94;;;23.06;58.80
7337;BME280;54510;42.016;23.098;2023-08-01T02:37:15;-21760.56;;;22.90;59.06
7337;BME280;54510;42.016;23.098;2023-08-01T02:39:40;-21758.66;;;22.82;58.97
7337;BME280;54510;42.016;23.098;2023-08-01T02:42:06;-21761.53;;;22.93;58.82
7337;BME280;54510;42.016;23.098;2023-08-01T02:44:31;-21746.75;;;22.38;60.17
7337;BME280;54510;42.016;23.098;2023-08-01T02:46:56;-21753.47;;;22.63;59.53
7337;BME280;54510;42.016;23.098;2023-08-01T02:49:22;-21750.84;;;22.54;60.42
7337;BME280;54510;42.016;23.098;2023-08-01T02:51:49;-21755.38;;;22.70;59.46
7337;BME280;54510;42.016;23.098;2023-08-01T02:54:14;-21752.22;;;22.59;59.59
7337;BME280;54510;42.016;23.098;2023-08-01T02:56:40;-21765.88;;;23.09;58.49
7337;BME280;54510;42.016;23.098;2023-08-01T02:59:07;-21769.31;;;23.22;57.99
7337;BME280;54510;42.016;23.098;2023-08-01T03:01:37;-21761.25;;;22.92;58.71
7337;BME280;54510;42.016;23.098;2023-08-01T03:04:03;-21756.59;;;22.75;58.99
7337;BME280;54510;42.016;23.098;2023-08-01T03:06:29;-21757.44;;;22.78;59.14
7337;BME280;54510;42.016;23.098;2023-08-01T03:08:55;-21760.97;;;22.91;58.59
7337;BME280;54510;42.016;23.098;2023-08-01T03:11:20;-21757.00;;;22.76;58.98
7337;BME280;54510;42.016;23.098;2023-08-01T03:13:46;-21755.09;;;22.69;59.21
7337;BME280;54510;42.016;23.098;2023-08-01T03:16:11;-21751.13;;;22.55;59.66
7337;BME280;54510;42.016;23.098;2023-08-01T03:18:36;-21748.81;;;22.46;59.81
7337;BME280;54510;42.016;23.098;2023-08-01T03:21:02;-21748.69;;;22.45;60.43
7337;BME280;54510;42.016;23.098;2023-08-01T03:23:29;-21750.31;;;22.52;60.41
7337;BME280;54510;42.016;23.098;2023-08-01T03:25:54;-21748.00;;;22.43;60.46
7337;BME280;54510;42.016;23.098;2023-08-01T03:28:20;-21741.84;;;22.20;60.95
7337;BME280;54510;42.016;23.098;2023-08-01T03:30:45;-21742.38;;;22.22;61.32
7337;BME280;54510;42.016;23.098;2023-08-01T03:33:11;-21739.94;;;22.13;61.67
7337;BME280;54510;42.016;23.098;2023-08-01T03:35:36;-21743.06;;;22.25;61.21
7337;BME280;54510;42.016;23.098;2023-08-01T03:38:02;-21737.47;;;22.04;61.58
7337;BME280;54510;42.016;23.098;2023-08-01T03:40:27;-21738.56;;;22.08;61.74
7337;BME280;54510;42.016;23.098;2023-08-01T03:42:53;-21737.47;;;22.04;61.81
7337;BME280;54510;42.016;23.098;2023-08-01T03:45:18;-21735.81;;;21.98;61.99
7337;BME280;54510;42.016;23.098;2023-08-01T03:47:43;-21733.38;;;21.89;62.33
7337;BME280;54510;42.016;23.098;2023-08-01T03:50:09;-21733.91;;;21.91;62.45
7337;BME280;54510;42.016;23.098;2023-08-01T03:52:35;-21736.22;;;21.99;62.28
7337;BME280;54510;42.016;23.098;2023-08-01T03:55:00;-21735.28;;;21.96;62.51
7337;BME280;54510;42.016;23.098;2023-08-01T03:57:25;-21743.63;;;22.27;61.52
7337;BME280;54510;42.016;23.098;2023-08-01T03:59:51;-21750.84;;;22.54;60.29
7337;BME280;54510;42.016;23.098;2023-08-01T04:02:16;-21756.34;;;22.74;60.05
7337;BME280;54510;42.016;23.098;2023-08-01T04:04:42;-21757.28;;;22.77;59.54
7337;BME280;54510;42.016;23.098;2023-08-01T04:07:07;-21757.69;;;22.79;59.55
7337;BME280;54510;42.016;23.098;2023-08-01T04:09:33;-21757.44;;;22.78;59.41
7337;BME280;54510;42.016;23.098;2023-08-01T04:11:59;-21755.38;;;22.70;58.85
7337;BME280;54510;42.016;23.098;2023-08-01T04:14:24;-21763.44;;;23.00;58.21
7337;BME280;54510;42.016;23.098;2023-08-01T04:16:50;-21771.34;;;23.30;58.10
7337;BME280;54510;42.016;23.098;2023-08-01T04:19:15;-21766.16;;;23.10;58.30
7337;BME280;54510;42.016;23.098;2023-08-01T04:21:41;-21762.47;;;22.97;58.09
7337;BME280;54510;42.016;23.098;2023-08-01T04:24:06;-21766.97;;;23.13;57.88
7337;BME280;54510;42.016;23.098;2023-08-01T04:26:31;-21774.75;;;23.42;57.48
7337;BME280;54510;42.016;23.098;2023-08-01T04:28:57;-21779.81;;;23.61;56.96
7337;BME280;54510;42.016;23.098;2023-08-01T04:31:22;-21780.22;;;23.62;56.58
7337;BME280;54510;42.016;23.098;2023-08-01T04:33:48;-21783.91;;;23.76;56.23
7337;BME280;54510;42.016;23.098;2023-08-01T04:36:13;-21780.91;;;23.65;56.29
7337;BME280;54510;42.016;23.098;2023-08-01T04:38:38;-21776.00;;;23.47;57.08
7337;BME280;54510;42.016;23.098;2023-08-01T04:41:04;-21776.13;;;23.47;56.70
7337;BME280;54510;42.016;23.098;2023-08-01T04:43:29;-21777.50;;;23.52;56.90
7337;BME280;54510;42.016;23.098;2023-08-01T04:45:55;-21777.09;;;23.51;56.78
7337;BME280;54510;42.016;23.098;2023-08-01T04:48:20;-21783.09;;;23.73;56.17
7337;BME280;54510;42.016;23.098;2023-08-01T04:50:45;-21787.19;;;23.88;55.87
7337;BME280;54510;42.016;23.098;2023-08-01T04:53:12;-21786.22;;;23.85;55.54
7337;BME280;54510;42.016;23.098;2023-08-01T04:55:37;-21788.13;;;23.92;55.49
7337;BME280;54510;42.016;23.098;2023-08-01T04:58:03;-21790.72;;;24.01;55.32
7337;BME280;54510;42.016;23.098;2023-08-01T05:00:28;-21784.72;;;23.79;55.59
7337;BME280;54510;42.016;23.098;2023-08-01T05:02:53;-21782.28;;;23.70;56.39
7337;BME280;54510;42.016;23.098;2023-08-01T05:05:19;-21783.50;;;23.75;55.91
7337;BME280;54510;42.016;23.098;2023-08-01T05:07:44;-21785.53;;;23.82;55.77
7337;BME280;54510;42.016;23.098;2023-08-01T05:10:10;-21780.50;;;23.63;55.91
7337;BME280;54510;42.016;23.098;2023-08-01T05:12:35;-21788.13;;;23.92;55.88
7337;BME280;54510;42.016;23.098;2023-08-01T05:15:01;-21791.13;;;24.03;55.56
7337;BME280;54510;42.016;23.098;2023-08-01T05:17:26;-21793.44;;;24.12;55.18
7337;BME280;54510;42.016;23.098;2023-08-01T05:19:51;-21799.03;;;24.32;54.76
7337;BME280;54510;42.016;23.098;2023-08-01T05:22:17;-21804.38;;;24.52;54.21
7337;BME280;54510;42.016;23.098;2023-08-01T05:24:42;-21808.19;;;24.66;53.93
7337;BME280;54510;42.016;23.098;2023-08-01T05:27:08;-21806.69;;;24.61;53.90
7337;BME280;54510;42.016;23.098;2023-08-01T05:29:33;-21801.91;;;24.43;54.55
7337;BME280;54510;42.016;23.098;2023-08-01T05:31:58;-21806.00;;;24.58;54.42
7337;BME280;54510;42.016;23.098;2023-08-01T05:34:24;-21809.81;;;24.72;53.80
7337;BME280;54510;42.016;23.098;2023-08-01T05:36:49;-21813.06;;;24.85;53.46
7337;BME280;54510;42.016;23.098;2023-08-01T05:39:15;-21809.41;;;24.71;53.39
7337;BME280;54510;42.016;23.098;2023-08-01T05:41:42;-21814.59;;;24.90;53.66
7337;BME280;54510;42.016;23.098;2023-08-01T05:44:08;-21815.25;;;24.93;53.36
7337;BME280;54510;42.016;23.098;2023-08-01T05:46:33;-21816.63;;;24.98;53.22
7337;BME280;54510;42.016;23.098;2023-08-01T05:48:58;-21817.84;;;25.02;53.03
7337;BME280;54510;42.016;23.098;2023-08-01T05:51:24;-21818.38;;;25.04;53.09
7337;BME280;54510;42.016;23.098;2023-08-01T05:53:49;-21820.44;;;25.12;53.03
7337;BME280;54510;42.016;23.098;2023-08-01T05:56:15;-21820.28;;;25.11;53.00
7337;BME280;54510;42.016;23.098;2023-08-01T05:58:40;-21823.44;;;25.23;52.46
7337;BME280;54510;42.016;23.098;2023-08-01T06:01:05;-21822.75;;;25.21;52.17
7337;BME280;54510;42.016;23.098;2023-08-01T06:03:31;-21823.28;;;25.23;52.16
7337;BME280;54510;42.016;23.098;2023-08-01T06:05:56;-21824.53;;;25.27;51.76
7337;BME280;54510;42.016;23.098;2023-08-01T06:08:22;-21828.59;;;25.42;52.05
7337;BME280;54510;42.016;23.098;2023-08-01T06:10:47;-21828.88;;;25.43;51.78
7337;BME280;54510;42.016;23.098;2023-08-01T06:13:13;-21827.91;;;25.40;51.88
7337;BME280;54510;42.016;23.098;2023-08-01T06:15:38;-21832.41;;;25.56;51.65
7337;BME280;54510;42.016;23.098;2023-08-01T06:18:03;-21835.53;;;25.68;51.51
7337;BME280;54510;42.016;23.098;2023-08-01T06:20:29;-21841.38;;;25.90;50.73
7337;BME280;54510;42.016;23.098;2023-08-01T06:22:55;-21843.03;;;25.96;50.50
7337;BME280;54510;42.016;23.098;2023-08-01T06:25:20;-21847.91;;;26.14;50.28
7337;BME280;54510;42.016;23.098;2023-08-01T06:27:45;-21849.94;;;26.22;50.23
7337;BME280;54510;42.016;23.098;2023-08-01T06:30:11;-21851.72;;;26.28;49.78
7337;BME280;54510;42.016;23.098;2023-08-01T06:32:37;-21847.38;;;26.12;49.74
7337;BME280;54510;42.016;23.098;2023-08-01T06:35:02;-21854.16;;;26.38;49.54
7337;BME280;54510;42.016;23.098;2023-08-01T06:37:28;-21854.16;;;26.38;49.46
7337;BME280;54510;42.016;23.098;2023-08-01T06:39:54;-21859.19;;;26.56;49.02
7337;BME280;54510;42.016;23.098;2023-08-01T06:42:20;-21861.22;;;26.64;48.73
7337;BME280;54510;42.016;23.098;2023-08-01T06:44:46;-21857.69;;;26.51;48.92
7337;BME280;54510;42.016;23.098;2023-08-01T06:47:11;-21862.88;;;26.70;48.53
7337;BME280;54510;42.016;23.098;2023-08-01T06:49:37;-21864.34;;;26.75;48.86
7337;BME280;54510;42.016;23.098;2023-08-01T06:52:02;-21867.34;;;26.87;48.41
7337;BME280;54510;42.016;23.098;2023-08-01T06:54:28;-21869.78;;;26.96;47.83
7337;BME280;54510;42.016;23.098;2023-08-01T06:56:53;-21873.19;;;27.08;47.77
7337;BME280;54510;42.016;23.098;2023-08-01T06:59:19;-21875.22;;;27.16;47.71
7337;BME280;54510;42.016;23.098;2023-08-01T07:01:44;-21874.81;;;27.15;47.12
7337;BME280;54510;42.016;23.098;2023-08-01T07:04:13;-21877.25;;;27.24;47.32
7337;BME280;54510;42.016;23.098;2023-08-01T07:06:41;-21876.72;;;27.22;47.18
7337;BME280;54510;42.016;23.098;2023-08-01T07:09:07;-21878.47;;;27.28;47.09
7337;BME280;54510;42.016;23.098;2023-08-01T07:11:33;-21881.59;;;27.40;46.35
7337;BME280;54510;42.016;23.098;2023-08-01T07:13:58;-21879.16;;;27.31;46.39
7337;BME280;54510;42.016;23.098;2023-08-01T07:16:24;-21885.66;;;27.55;45.92
7337;BME280;54510;42.016;23.098;2023-08-01T07:18:49;-21890.16;;;27.72;46.48
7337;BME280;54510;42.016;23.098;2023-08-01T07:21:16;-21891.38;;;27.76;45.59
7337;BME280;54510;42.016;23.098;2023-08-01T07:23:42;-21894.47;;;27.88;46.05
7337;BME280;54510;42.016;23.098;2023-08-01T07:26:08;-21892.59;;;27.81;45.32
7337;BME280;54510;42.016;23.098;2023-08-01T07:28:33;-21899.38;;;28.06;45.06
7337;BME280;54510;42.016;23.098;2023-08-01T07:31:05;-21900.31;;;28.10;44.38
7337;BME280;54510;42.016;23.098;2023-08-01T07:33:32;-21898.94;;;28.05;44.85
7337;BME280;54510;42.016;23.098;2023-08-01T07:35:58;-21898.16;;;28.02;44.62
7337;BME280;54510;42.016;23.098;2023-08-01T07:38:23;-21901.25;;;28.13;44.74
7337;BME280;54510;42.016;23.098;2023-08-01T07:40:49;-21901.41;;;28.14;44.37
7337;BME280;54510;42.016;23.098;2023-08-01T07:43:14;-21895.84;;;27.93;44.17
7337;BME280;54510;42.016;23.098;2023-08-01T07:45:40;-21900.19;;;28.09;44.47
7337;BME280;54510;42.016;23.098;2023-08-01T07:48:05;-21907.63;;;28.37;43.86
7337;BME280;54510;42.016;23.098;2023-08-01T07:50:31;-21908.44;;;28.40;43.82
7337;BME280;54510;42.016;23.098;2023-08-01T07:52:56;-21907.50;;;28.37;43.71
7337;BME280;54510;42.016;23.098;2023-08-01T07:55:22;-21909.81;;;28.45;43.85
7337;BME280;54510;42.016;23.098;2023-08-01T07:57:48;-21911.16;;;28.50;44.37
7337;BME280;54510;42.016;23.098;2023-08-01T08:00:14;-21914.94;;;28.64;43.79
7337;BME280;54510;42.016;23.098;2023-08-01T08:02:41;-21920.09;;;28.84;43.35
7337;BME280;54510;42.016;23.098;2023-08-01T08:05:07;-21920.38;;;28.85;43.38
7337;BME280;54510;42.016;23.098;2023-08-01T08:07:33;-21916.28;;;28.69;43.15
7337;BME280;54510;42.016;23.098;2023-08-01T08:09:58;-21924.97;;;29.02;42.80
7337;BME280;54510;42.016;23.098;2023-08-01T08:12:24;-21924.81;;;29.01;43.29
7337;BME280;54510;42.016;23.098;2023-08-01T08:14:49;-21928.47;;;29.15;42.59
7337;BME280;54510;42.016;23.098;2023-08-01T08:17:14;-21926.03;;;29.06;42.53
7337;BME280;54510;42.016;23.098;2023-08-01T08:19:40;-21933.34;;;29.33;42.31
7337;BME280;54510;42.016;23.098;2023-08-01T08:22:06;-21935.78;;;29.42;41.93
7337;BME280;54510;42.016;23.098;2023-08-01T08:24:31;-21938.09;;;29.51;42.30
7337;BME280;54510;42.016;23.098;2023-08-01T08:26:57;-21945.53;;;29.79;42.02
7337;BME280;54510;42.016;23.098;2023-08-01T08:29:22;-21948.09;;;29.89;41.48
7337;BME280;54510;42.016;23.098;2023-08-01T08:31:47;-21950.13;;;29.96;41.03
7337;BME280;54510;42.016;23.098;2023-08-01T08:34:13;-21957.16;;;30.22;40.06
7337;BME280;54510;42.016;23.098;2023-08-01T08:36:38;-21959.03;;;30.30;39.52
7337;BME280;54510;42.016;23.098;2023-08-01T08:39:04;-21959.84;;;30.33;39.58
7337;BME280;54510;42.016;23.098;2023-08-01T08:41:32;-21961.72;;;30.40;38.23
7337;BME280;54510;42.016;23.098;2023-08-01T08:44:01;-21963.34;;;30.46;37.78
7337;BME280;54510;42.016;23.098;2023-08-01T08:46:28;-21964.97;;;30.52;36.66
7337;BME280;54510;42.016;23.098;2023-08-01T08:48:56;-21964.97;;;30.52;35.92
7337;BME280;54510;42.016;23.098;2023-08-01T08:51:23;-21967.81;;;30.63;35.35
7337;BME280;54510;42.016;23.098;2023-08-01T08:53:52;-21968.47;;;30.65;34.07
7337;BME280;54510;42.016;23.098;2023-08-01T08:56:20;-21967.94;;;30.63;33.86
7337;BME280;54510;42.016;23.098;2023-08-01T08:58:45;-21965.66;;;30.54;34.94
7337;BME280;54510;42.016;23.098;2023-08-01T09:01:12;-21967.69;;;30.62;34.58
7337;BME280;54510;42.016;23.098;2023-08-01T09:03:38;-21970.66;;;30.73;34.08
7337;BME280;54510;42.016;23.098;2023-08-01T09:06:12;-21973.06;;;30.82;34.34
7337;BME280;54510;42.016;23.098;2023-08-01T09:08:40;-21974.97;;;30.89;35.39
7337;BME280;54510;42.016;23.098;2023-08-01T09:11:08;-21980.38;;;31.10;35.43
7337;BME280;54510;42.016;23.098;2023-08-01T09:13:34;-21983.06;;;31.20;34.25
7337;BME280;54510;42.016;23.098;2023-08-01T09:16:01;-21987.63;;;31.37;32.99
7337;BME280;54510;42.016;23.098;2023-08-01T09:18:27;-21991.69;;;31.52;32.13
7337;BME280;54510;42.016;23.098;2023-08-01T09:20:53;-21989.41;;;31.44;32.45
7337;BME280;54510;42.016;23.098;2023-08-01T09:23:18;-21993.56;;;31.59;32.51
7337;BME280;54510;42.016;23.098;2023-08-01T09:25:44;-21999.63;;;31.82;32.09
7337;BME280;54510;42.016;23.098;2023-08-01T09:28:20;-21998.16;;;31.76;31.66
7337;BME280;54510;42.016;23.098;2023-08-01T09:30:47;-22000.59;;;31.86;33.16
7337;BME280;54510;42.016;23.098;2023-08-01T09:33:13;-22000.59;;;31.86;33.84
7337;BME280;54510;42.016;23.098;2023-08-01T09:38:14;-22000.31;;;31.85;32.99
7337;BME280;54510;42.016;23.098;2023-08-01T09:40:44;-22002.59;;;31.93;33.19
7337;BME280;54510;42.016;23.098;2023-08-01T09:43:11;-22005.28;;;32.03;31.78
7337;BME280;54510;42.016;23.098;2023-08-01T09:45:37;-22005.44;;;32.04;32.14
7337;BME280;54510;42.016;23.098;2023-08-01T09:48:02;-22007.72;;;32.12;32.02
7337;BME280;54510;42.016;23.098;2023-08-01T09:50:28;-22010.94;;;32.25;31.39
7337;BME280;54510;42.016;23.098;2023-08-01T09:52:54;-22012.97;;;32.32;30.69
7337;BME280;54510;42.016;23.098;2023-08-01T09:55:30;-22013.63;;;32.35;29.83
7337;BME280;54510;42.016;23.098;2023-08-01T09:57:57;-22009.59;;;32.20;29.42
7337;BME280;54510;42.016;23.098;2023-08-01T10:00:25;-22008.00;;;32.13;30.42
7337;BME280;54510;42.016;23.098;2023-08-01T10:02:52;-22014.44;;;32.38;29.65
7337;BME280;54510;42.016;23.098;2023-08-01T10:05:19;-22018.88;;;32.54;29.08
7337;BME280;54510;42.016;23.098;2023-08-01T10:07:45;-22019.44;;;32.56;30.05
7337;BME280;54510;42.016;23.098;2023-08-01T10:10:12;-22021.03;;;32.63;31.15
7337;BME280;54510;42.016;23.098;2023-08-01T10:12:38;-22021.97;;;32.66;28.90
7337;BME280;54510;42.016;23.098;2023-08-01T10:15:05;-22024.53;;;32.76;29.73
7337;BME280;54510;42.016;23.098;2023-08-01T10:17:31;-22033.94;;;33.11;28.57
7337;BME280;54510;42.016;23.098;2023-08-01T10:19:59;-22037.19;;;33.23;27.89
7337;BME280;54510;42.016;23.098;2023-08-01T10:22:25;-22034.50;;;33.13;28.23
7337;BME280;54510;42.016;23.098;2023-08-01T10:24:52;-22035.69;;;33.18;28.78
7337;BME280;54510;42.016;23.098;2023-08-01T10:27:19;-22037.84;;;33.26;28.63
7337;BME280;54510;42.016;23.098;2023-08-01T10:29:59;-22038.00;;;33.26;28.53
7337;BME280;54510;42.016;23.098;2023-08-01T10:32:38;-22037.72;;;33.25;28.78
7337;BME280;54510;42.016;23.098;2023-08-01T10:35:04;-22037.19;;;33.23;28.61
7337;BME280;54510;42.016;23.098;2023-08-01T10:37:45;-22035.31;;;33.16;28.62
7337;BME280;54510;42.016;23.098;2023-08-01T10:40:14;-22041.47;;;33.40;28.17
7337;BME280;54510;42.016;23.098;2023-08-01T10:42:42;-22046.06;;;33.57;28.15
7337;BME280;54510;42.016;23.098;2023-08-01T10:45:19;-22049.13;;;33.68;28.53
7337;BME280;54510;42.016;23.098;2023-08-01T10:47:45;-22050.34;;;33.73;27.69
7337;BME280;54510;42.016;23.098;2023-08-01T10:50:15;-22040.69;;;33.37;27.44
7337;BME280;54510;42.016;23.098;2023-08-01T10:52:41;-22040.53;;;33.36;28.02
7337;BME280;54510;42.016;23.098;2023-08-01T10:55:07;-22036.38;;;33.20;27.90
7337;BME280;54510;42.016;23.098;2023-08-01T10:57:36;-22043.22;;;33.46;28.48
7337;BME280;54510;42.016;23.098;2023-08-01T11:00:03;-22043.91;;;33.49;28.03
7337;BME280;54510;42.016;23.098;2023-08-01T11:02:30;-22044.84;;;33.52;28.23
7337;BME280;54510;42.016;23.098;2023-08-01T11:04:59;-22042.28;;;33.43;27.48
7337;BME280;54510;42.016;23.098;2023-08-01T11:07:25;-22051.16;;;33.76;28.18
7337;BME280;54510;42.016;23.098;2023-08-01T11:12:27;-22051.69;;;33.78;27.13
7337;BME280;54510;42.016;23.098;2023-08-01T11:14:59;-22059.59;;;34.08;26.99
7337;BME280;54510;42.016;23.098;2023-08-01T11:17:25;-22064.84;;;34.28;26.99
7337;BME280;54510;42.016;23.098;2023-08-01T11:19:50;-22063.63;;;34.23;29.96
7337;BME280;54510;42.016;23.098;2023-08-01T11:22:15;-22063.91;;;34.24;27.19
7337;BME280;54510;42.016;23.098;2023-08-01T11:24:49;-22072.75;;;34.58;26.65
7337;BME280;54510;42.016;23.098;2023-08-01T11:27:15;-22081.22;;;34.90;25.91
7337;BME280;54510;42.016;23.098;2023-08-01T11:29:41;-22086.28;;;35.09;25.87
7337;BME280;54510;42.016;23.098;2023-08-01T11:32:06;-22089.66;;;35.21;25.37
7337;BME280;54510;42.016;23.098;2023-08-01T11:34:39;-22090.31;;;35.24;25.27
7337;BME280;54510;42.016;23.098;2023-08-01T11:37:06;-22084.97;;;35.04;26.00
7337;BME280;54510;42.016;23.098;2023-08-01T11:39:32;-22082.94;;;34.96;28.71
7337;BME280;54510;42.016;23.098;2023-08-01T11:41:57;-22079.72;;;34.84;26.57
7337;BME280;54510;42.016;23.098;2023-08-01T11:44:24;-22089.50;;;35.21;25.21
7337;BME280;54510;42.016;23.098;2023-08-01T11:46:49;-22097.41;;;35.51;25.54
7337;BME280;54510;42.016;23.098;2023-08-01T11:49:15;-22085.50;;;35.06;26.74
7337;BME280;54510;42.016;23.098;2023-08-01T11:51:42;-22082.81;;;34.96;25.93
7337;BME280;54510;42.016;23.098;2023-08-01T11:54:08;-22081.34;;;34.90;25.30
7337;BME280;54510;42.016;23.098;2023-08-01T11:56:36;-22077.19;;;34.74;25.38
7337;BME280;54510;42.016;23.098;2023-08-01T11:59:11;-22085.22;;;35.05;27.57
7337;BME280;54510;42.016;23.098;2023-08-01T12:01:41;-22079.06;;;34.81;25.30
7337;BME280;54510;42.016;23.098;2023-08-01T12:04:07;-22081.34;;;34.90;25.10
7337;BME280;54510;42.016;23.098;2023-08-01T12:06:33;-22087.38;;;35.13;24.72
7337;BME280;54510;42.016;23.098;2023-08-01T12:09:10;-22092.47;;;35.32;27.81
7337;BME280;54510;42.016;23.098;2023-08-01T12:11:36;-22093.78;;;35.37;27.27
7337;BME280;54510;42.016;23.098;2023-08-01T12:14:03;-22094.59;;;35.40;25.05
7337;BME280;54510;42.016;23.098;2023-08-01T12:16:29;-22096.75;;;35.48;23.49
7337;BME280;54510;42.016;23.098;2023-08-01T12:18:55;-22108.25;;;35.92;23.27
7337;BME280;54510;42.016;23.098;2023-08-01T12:21:21;-22110.00;;;35.98;22.66
7337;BME280;54510;42.016;23.098;2023-08-01T12:23:46;-22110.66;;;36.01;21.85
7337;BME280;54510;42.016;23.098;2023-08-01T12:26:11;-22106.38;;;35.85;22.08
7337;BME280;54510;42.016;23.098;2023-08-01T12:28:37;-22113.75;;;36.13;22.37
7337;BME280;54510;42.016;23.098;2023-08-01T12:31:03;-22126.97;;;36.63;22.83
7337;BME280;54510;42.016;23.098;2023-08-01T12:33:29;-22137.13;;;37.01;22.25
7337;BME280;54510;42.016;23.098;2023-08-01T12:35:54;-22121.63;;;36.42;24.11
7337;BME280;54510;42.016;23.098;2023-08-01T12:38:20;-22123.50;;;36.50;25.36
7337;BME280;54510;42.016;23.098;2023-08-01T12:40:45;-22105.84;;;35.83;26.41
7337;BME280;54510;42.016;23.098;2023-08-01T12:43:12;-22128.56;;;36.69;25.42
7337;BME280;54510;42.016;23.098;2023-08-01T12:45:37;-22135.53;;;36.95;22.55
7337;BME280;54510;42.016;23.098;2023-08-01T12:48:03;-22147.94;;;37.42;21.96
7337;BME280;54510;42.016;23.098;2023-08-01T12:50:29;-22148.34;;;37.44;22.35